sensor_id;sensor_type;location;lat;lon;timestamp;P1;durP1;ratioP1;P2;durP2;ratioP2
5052;SDS011;2545;50.892;5.740;2024-01-07T00:00:27;35.00;;;17.23;;
5052;SDS011;2545;50.892;5.740;2024-01-07T00:02:53;36.87;;;19.40;;
5052;SDS011;2545;50.892;5.740;2024-01-07T00:05:18;29.17;;;16.43;;
5052;SDS011;2545;50.892;5.740;2024-01-07T00:07:43;31.90;;;16.30;;
5052;SDS011;2545;50.892;5.740;2024-01-07T00:10:09;29.00;;;15.87;;
5052;SDS011;2545;50.892;5.740;2024-01-07T00:12:34;30.17;;;15.00;;
5052;SDS011;2545;50.892;5.740;2024-01-07T00:15:00;33.87;;;16.13;;
5052;SDS011;2545;50.892;5.740;2024-01-07T00:17:25;33.77;;;15.97;;
5052;SDS011;2545;50.892;5.740;2024-01-07T00:19:51;30.87;;;17.53;;
5052;SDS011;2545;50.892;5.740;2024-01-07T00:22:16;24.57;;;15.60;;
5052;SDS011;2545;50.892;5.740;2024-01-07T00:24:42;30.90;;;15.80;;
5052;SDS011;2545;50.892;5.740;2024-01-07T00:27:07;27.33;;;16.30;;
5052;SDS011;2545;50.892;5.740;2024-01-07T00:29:33;31.50;;;16.80;;
5052;SDS011;2545;50.892;5.740;2024-01-07T00:32:00;30.23;;;16.03;;
5052;SDS011;2545;50.892;5.740;2024-01-07T00:34:25;30.30;;;16.37;;
5052;SDS011;2545;50.892;5.740;2024-01-07T00:36:51;27.93;;;15.60;;
5052;SDS011;2545;50.892;5.740;2024-01-07T00:39:16;27.37;;;15.67;;
5052;SDS011;2545;50.892;5.740;2024-01-07T00:41:41;26.27;;;14.67;;
5052;SDS011;2545;50.892;5.740;2024-01-07T00:44:06;30.93;;;17.50;;
5052;SDS011;2545;50.892;5.740;2024-01-07T00:46:32;29.77;;;17.17;;
5052;SDS011;2545;50.892;5.740;2024-01-07T00:48:57;36.53;;;17.60;;
5052;SDS011;2545;50.892;5.740;2024-01-07T00:51:22;31.50;;;17.30;;
5052;SDS011;2545;50.892;5.740;2024-01-07T00:53:48;33.47;;;17.43;;
5052;SDS011;2545;50.892;5.740;2024-01-07T00:56:13;37.97;;;17.43;;
5052;SDS011;2545;50.892;5.740;2024-01-07T00:58:38;32.53;;;17.97;;
5052;SDS011;2545;50.892;5.740;2024-01-07T01:01:03;33.97;;;18.57;;
5052;SDS011;2545;50.892;5.740;2024-01-07T01:03:30;31.90;;;16.30;;
5052;SDS011;2545;50.892;5.740;2024-01-07T01:05:55;30.37;;;16.33;;
5052;SDS011;2545;50.892;5.740;2024-01-07T01:08:21;27.47;;;16.30;;
5052;SDS011;2545;50.892;5.740;2024-01-07T01:10:46;32.60;;;16.20;;
5052;SDS011;2545;50.892;5.740;2024-01-07T01:13:11;29.53;;;16.40;;
5052;SDS011;2545;50.892;5.740;2024-01-07T01:15:37;37.33;;;17.03;;
5052;SDS011;2545;50.892;5.740;2024-01-07T01:18:02;32.57;;;16.90;;
5052;SDS011;2545;50.892;5.740;2024-01-07T01:20:27;26.77;;;15.63;;
5052;SDS011;2545;50.892;5.740;2024-01-07T01:22:53;35.20;;;17.60;;
5052;SDS011;2545;50.892;5.740;2024-01-07T01:25:18;33.87;;;17.40;;
5052;SDS011;2545;50.892;5.740;2024-01-07T01:27:43;33.10;;;16.20;;
5052;SDS011;2545;50.892;5.740;2024-01-07T01:30:10;30.07;;;16.10;;
5052;SDS011;2545;50.892;5.740;2024-01-07T01:32:36;37.50;;;18.10;;
5052;SDS011;2545;50.892;5.740;2024-01-07T01:35:01;39.40;;;18.90;;
5052;SDS011;2545;50.892;5.740;2024-01-07T01:37:27;31.90;;;17.43;;
5052;SDS011;2545;50.892;5.740;2024-01-07T01:39:52;34.70;;;17.73;;
5052;SDS011;2545;50.892;5.740;2024-01-07T01:42:17;34.47;;;18.77;;
5052;SDS011;2545;50.892;5.740;2024-01-07T01:44:43;36.67;;;18.90;;
5052;SDS011;2545;50.892;5.740;2024-01-07T01:47:09;36.23;;;19.43;;
5052;SDS011;2545;50.892;5.740;2024-01-07T01:49:35;35.40;;;18.40;;
5052;SDS011;2545;50.892;5.740;2024-01-07T01:52:03;34.80;;;17.70;;
5052;SDS011;2545;50.892;5.740;2024-01-07T01:54:29;38.20;;;20.07;;
5052;SDS011;2545;50.892;5.740;2024-01-07T01:56:54;30.70;;;18.00;;
5052;SDS011;2545;50.892;5.740;2024-01-07T01:59:20;31.60;;;17.60;;
5052;SDS011;2545;50.892;5.740;2024-01-07T02:01:45;34.67;;;18.07;;
5052;SDS011;2545;50.892;5.740;2024-01-07T02:04:11;34.10;;;18.27;;
5052;SDS011;2545;50.892;5.740;2024-01-07T02:06:36;34.60;;;18.87;;
5052;SDS011;2545;50.892;5.740;2024-01-07T02:09:02;34.80;;;17.47;;
5052;SDS011;2545;50.892;5.740;2024-01-07T02:11:28;33.83;;;19.40;;
5052;SDS011;2545;50.892;5.740;2024-01-07T02:13:53;36.30;;;18.00;;
5052;SDS011;2545;50.892;5.740;2024-01-07T02:16:19;35.63;;;17.53;;
5052;SDS011;2545;50.892;5.740;2024-01-07T02:18:45;35.13;;;18.07;;
5052;SDS011;2545;50.892;5.740;2024-01-07T02:21:11;41.17;;;18.10;;
5052;SDS011;2545;50.892;5.740;2024-01-07T02:23:38;31.90;;;17.23;;
5052;SDS011;2545;50.892;5.740;2024-01-07T02:26:03;37.27;;;18.40;;
5052;SDS011;2545;50.892;5.740;2024-01-07T02:28:32;37.83;;;19.27;;
5052;SDS011;2545;50.892;5.740;2024-01-07T02:30:58;36.57;;;17.23;;
5052;SDS011;2545;50.892;5.740;2024-01-07T02:33:24;35.47;;;18.30;;
5052;SDS011;2545;50.892;5.740;2024-01-07T02:35:49;35.00;;;17.40;;
5052;SDS011;2545;50.892;5.740;2024-01-07T02:38:14;32.03;;;17.10;;
5052;SDS011;2545;50.892;5.740;2024-01-07T02:40:40;37.07;;;17.53;;
5052;SDS011;2545;50.892;5.740;2024-01-07T02:43:05;36.83;;;19.30;;
5052;SDS011;2545;50.892;5.740;2024-01-07T02:45:30;40.07;;;18.57;;
5052;SDS011;2545;50.892;5.740;2024-01-07T02:47:56;33.30;;;15.90;;
5052;SDS011;2545;50.892;5.740;2024-01-07T02:50:21;35.53;;;18.40;;
5052;SDS011;2545;50.892;5.740;2024-01-07T02:52:47;35.20;;;17.30;;
5052;SDS011;2545;50.892;5.740;2024-01-07T02:55:12;38.80;;;18.47;;
5052;SDS011;2545;50.892;5.740;2024-01-07T02:57:38;36.20;;;17.63;;
5052;SDS011;2545;50.892;5.740;2024-01-07T03:00:03;37.87;;;19.23;;
5052;SDS011;2545;50.892;5.740;2024-01-07T03:02:30;33.10;;;18.20;;
5052;SDS011;2545;50.892;5.740;2024-01-07T03:04:55;44.60;;;19.40;;
5052;SDS011;2545;50.892;5.740;2024-01-07T03:07:20;39.70;;;18.30;;
5052;SDS011;2545;50.892;5.740;2024-01-07T03:09:46;42.10;;;19.77;;
5052;SDS011;2545;50.892;5.740;2024-01-07T03:12:14;40.27;;;18.80;;
5052;SDS011;2545;50.892;5.740;2024-01-07T03:14:40;39.47;;;19.50;;
5052;SDS011;2545;50.892;5.740;2024-01-07T03:17:06;46.97;;;20.13;;
5052;SDS011;2545;50.892;5.740;2024-01-07T03:19:32;42.23;;;18.50;;
5052;SDS011;2545;50.892;5.740;2024-01-07T03:21:57;38.80;;;18.30;;
5052;SDS011;2545;50.892;5.740;2024-01-07T03:24:23;35.53;;;16.83;;
5052;SDS011;2545;50.892;5.740;2024-01-07T03:26:48;34.97;;;18.33;;
5052;SDS011;2545;50.892;5.740;2024-01-07T03:29:13;38.60;;;18.47;;
5052;SDS011;2545;50.892;5.740;2024-01-07T03:31:39;43.53;;;17.83;;
5052;SDS011;2545;50.892;5.740;2024-01-07T03:34:04;33.57;;;17.10;;
5052;SDS011;2545;50.892;5.740;2024-01-07T03:36:29;34.03;;;17.60;;
5052;SDS011;2545;50.892;5.740;2024-01-07T03:38:55;35.40;;;16.73;;
5052;SDS011;2545;50.892;5.740;2024-01-07T03:41:20;30.13;;;16.33;;
5052;SDS011;2545;50.892;5.740;2024-01-07T03:43:46;29.13;;;14.47;;
5052;SDS011;2545;50.892;5.740;2024-01-07T03:46:12;33.80;;;14.40;;
5052;SDS011;2545;50.892;5.740;2024-01-07T03:48:38;26.67;;;14.47;;
5052;SDS011;2545;50.892;5.740;2024-01-07T03:51:03;29.80;;;14.10;;
5052;SDS011;2545;50.892;5.740;2024-01-07T03:53:28;25.97;;;13.30;;
5052;SDS011;2545;50.892;5.740;2024-01-07T03:55:54;26.87;;;13.67;;
5052;SDS011;2545;50.892;5.740;2024-01-07T03:58:19;25.60;;;13.17;;
5052;SDS011;2545;50.892;5.740;2024-01-07T04:00:45;26.33;;;12.97;;
5052;SDS011;2545;50.892;5.740;2024-01-07T04:03:10;26.03;;;12.70;;
5052;SDS011;2545;50.892;5.740;2024-01-07T04:05:36;29.67;;;12.90;;
5052;SDS011;2545;50.892;5.740;2024-01-07T04:08:02;32.23;;;13.47;;
5052;SDS011;2545;50.892;5.740;2024-01-07T04:10:29;29.73;;;13.97;;
5052;SDS011;2545;50.892;5.740;2024-01-07T04:12:55;31.17;;;14.67;;
5052;SDS011;2545;50.892;5.740;2024-01-07T04:15:20;27.53;;;12.70;;
5052;SDS011;2545;50.892;5.740;2024-01-07T04:17:46;25.47;;;12.67;;
5052;SDS011;2545;50.892;5.740;2024-01-07T04:20:14;31.33;;;14.23;;
5052;SDS011;2545;50.892;5.740;2024-01-07T04:22:40;28.13;;;12.40;;
5052;SDS011;2545;50.892;5.740;2024-01-07T04:25:05;31.17;;;13.70;;
5052;SDS011;2545;50.892;5.740;2024-01-07T04:27:35;31.67;;;14.87;;
5052;SDS011;2545;50.892;5.740;2024-01-07T04:30:02;29.50;;;14.70;;
5052;SDS011;2545;50.892;5.740;2024-01-07T04:32:28;31.00;;;14.00;;
5052;SDS011;2545;50.892;5.740;2024-01-07T04:34:53;27.17;;;14.57;;
5052;SDS011;2545;50.892;5.740;2024-01-07T04:37:19;31.73;;;14.67;;
5052;SDS011;2545;50.892;5.740;2024-01-07T04:39:44;25.33;;;12.40;;
5052;SDS011;2545;50.892;5.740;2024-01-07T04:42:09;27.87;;;13.23;;
5052;SDS011;2545;50.892;5.740;2024-01-07T04:44:35;28.53;;;13.83;;
5052;SDS011;2545;50.892;5.740;2024-01-07T04:47:00;30.83;;;13.20;;
5052;SDS011;2545;50.892;5.740;2024-01-07T04:49:25;24.07;;;12.73;;
5052;SDS011;2545;50.892;5.740;2024-01-07T04:51:51;20.90;;;12.07;;
5052;SDS011;2545;50.892;5.740;2024-01-07T04:54:16;33.63;;;13.20;;
5052;SDS011;2545;50.892;5.740;2024-01-07T04:56:41;20.77;;;11.73;;
5052;SDS011;2545;50.892;5.740;2024-01-07T04:59:08;26.33;;;12.03;;
5052;SDS011;2545;50.892;5.740;2024-01-07T05:01:33;23.67;;;12.10;;
5052;SDS011;2545;50.892;5.740;2024-01-07T05:04:00;20.43;;;11.40;;
5052;SDS011;2545;50.892;5.740;2024-01-07T05:06:25;23.60;;;12.33;;
5052;SDS011;2545;50.892;5.740;2024-01-07T05:08:50;23.30;;;12.83;;
5052;SDS011;2545;50.892;5.740;2024-01-07T05:11:16;23.30;;;12.30;;
5052;SDS011;2545;50.892;5.740;2024-01-07T05:13:42;26.17;;;11.67;;
5052;SDS011;2545;50.892;5.740;2024-01-07T05:16:07;23.83;;;12.67;;
5052;SDS011;2545;50.892;5.740;2024-01-07T05:18:33;28.33;;;14.20;;
5052;SDS011;2545;50.892;5.740;2024-01-07T05:20:58;25.37;;;12.70;;
5052;SDS011;2545;50.892;5.740;2024-01-07T05:23:23;24.07;;;12.57;;
5052;SDS011;2545;50.892;5.740;2024-01-07T05:25:49;24.30;;;13.40;;
5052;SDS011;2545;50.892;5.740;2024-01-07T05:28:14;29.10;;;14.53;;
5052;SDS011;2545;50.892;5.740;2024-01-07T05:30:44;26.30;;;12.87;;
5052;SDS011;2545;50.892;5.740;2024-01-07T05:33:09;29.03;;;14.07;;
5052;SDS011;2545;50.892;5.740;2024-01-07T05:35:35;30.13;;;14.90;;
5052;SDS011;2545;50.892;5.740;2024-01-07T05:38:00;29.30;;;14.57;;
5052;SDS011;2545;50.892;5.740;2024-01-07T05:40:25;28.80;;;15.00;;
5052;SDS011;2545;50.892;5.740;2024-01-07T05:42:50;27.33;;;14.30;;
5052;SDS011;2545;50.892;5.740;2024-01-07T05:45:16;28.90;;;15.90;;
5052;SDS011;2545;50.892;5.740;2024-01-07T05:47:41;31.87;;;14.63;;
5052;SDS011;2545;50.892;5.740;2024-01-07T05:50:07;26.87;;;14.00;;
5052;SDS011;2545;50.892;5.740;2024-01-07T05:52:33;27.80;;;13.90;;
5052;SDS011;2545;50.892;5.740;2024-01-07T05:54:58;29.80;;;15.70;;
5052;SDS011;2545;50.892;5.740;2024-01-07T05:57:24;27.40;;;14.97;;
5052;SDS011;2545;50.892;5.740;2024-01-07T05:59:49;31.43;;;15.70;;
5052;SDS011;2545;50.892;5.740;2024-01-07T06:02:15;24.33;;;12.27;;
5052;SDS011;2545;50.892;5.740;2024-01-07T06:04:42;29.07;;;15.30;;
5052;SDS011;2545;50.892;5.740;2024-01-07T06:07:07;32.63;;;14.27;;
5052;SDS011;2545;50.892;5.740;2024-01-07T06:09:33;29.60;;;15.93;;
5052;SDS011;2545;50.892;5.740;2024-01-07T06:11:58;29.27;;;15.53;;
5052;SDS011;2545;50.892;5.740;2024-01-07T06:14:23;29.63;;;15.87;;
5052;SDS011;2545;50.892;5.740;2024-01-07T06:16:49;28.67;;;15.37;;
5052;SDS011;2545;50.892;5.740;2024-01-07T06:19:18;36.70;;;16.47;;
5052;SDS011;2545;50.892;5.740;2024-01-07T06:21:43;39.07;;;17.70;;
5052;SDS011;2545;50.892;5.740;2024-01-07T06:24:09;35.57;;;18.37;;
5052;SDS011;2545;50.892;5.740;2024-01-07T06:26:34;34.90;;;18.13;;
5052;SDS011;2545;50.892;5.740;2024-01-07T06:29:00;33.70;;;17.53;;
5052;SDS011;2545;50.892;5.740;2024-01-07T06:31:26;34.90;;;17.93;;
5052;SDS011;2545;50.892;5.740;2024-01-07T06:33:51;39.23;;;17.20;;
5052;SDS011;2545;50.892;5.740;2024-01-07T06:36:17;29.10;;;15.60;;
5052;SDS011;2545;50.892;5.740;2024-01-07T06:38:42;32.33;;;17.63;;
5052;SDS011;2545;50.892;5.740;2024-01-07T06:41:09;30.13;;;15.60;;
5052;SDS011;2545;50.892;5.740;2024-01-07T06:43:35;36.37;;;16.37;;
5052;SDS011;2545;50.892;5.740;2024-01-07T06:46:00;38.87;;;18.30;;
5052;SDS011;2545;50.892;5.740;2024-01-07T06:48:25;35.73;;;17.17;;
5052;SDS011;2545;50.892;5.740;2024-01-07T06:50:51;36.40;;;16.83;;
5052;SDS011;2545;50.892;5.740;2024-01-07T06:53:16;32.50;;;15.37;;
5052;SDS011;2545;50.892;5.740;2024-01-07T06:55:41;41.30;;;18.47;;
5052;SDS011;2545;50.892;5.740;2024-01-07T06:58:07;34.87;;;18.07;;
5052;SDS011;2545;50.892;5.740;2024-01-07T07:00:32;37.97;;;19.00;;
5052;SDS011;2545;50.892;5.740;2024-01-07T07:02:57;32.73;;;17.47;;
5052;SDS011;2545;50.892;5.740;2024-01-07T07:05:23;34.80;;;17.73;;
5052;SDS011;2545;50.892;5.740;2024-01-07T07:07:48;31.60;;;17.57;;
5052;SDS011;2545;50.892;5.740;2024-01-07T07:10:13;31.10;;;15.43;;
5052;SDS011;2545;50.892;5.740;2024-01-07T07:12:39;31.47;;;17.13;;
5052;SDS011;2545;50.892;5.740;2024-01-07T07:15:04;34.80;;;18.07;;
5052;SDS011;2545;50.892;5.740;2024-01-07T07:17:30;30.43;;;16.73;;
5052;SDS011;2545;50.892;5.740;2024-01-07T07:19:55;28.20;;;15.13;;
5052;SDS011;2545;50.892;5.740;2024-01-07T07:22:20;32.70;;;18.20;;
5052;SDS011;2545;50.892;5.740;2024-01-07T07:24:47;30.90;;;16.70;;
5052;SDS011;2545;50.892;5.740;2024-01-07T07:27:12;27.57;;;16.27;;
5052;SDS011;2545;50.892;5.740;2024-01-07T07:29:37;28.53;;;14.80;;
5052;SDS011;2545;50.892;5.740;2024-01-07T07:32:03;28.33;;;16.07;;
5052;SDS011;2545;50.892;5.740;2024-01-07T07:34:28;32.50;;;18.20;;
5052;SDS011;2545;50.892;5.740;2024-01-07T07:36:55;29.90;;;15.77;;
5052;SDS011;2545;50.892;5.740;2024-01-07T07:39:20;32.40;;;15.83;;
5052;SDS011;2545;50.892;5.740;2024-01-07T07:41:46;33.07;;;16.20;;
5052;SDS011;2545;50.892;5.740;2024-01-07T07:44:11;33.87;;;16.60;;
5052;SDS011;2545;50.892;5.740;2024-01-07T07:46:36;35.30;;;18.50;;
5052;SDS011;2545;50.892;5.740;2024-01-07T07:49:02;40.33;;;17.90;;
5052;SDS011;2545;50.892;5.740;2024-01-07T07:51:27;35.63;;;19.00;;
5052;SDS011;2545;50.892;5.740;2024-01-07T07:53:53;32.07;;;18.10;;
5052;SDS011;2545;50.892;5.740;2024-01-07T07:56:18;38.90;;;18.50;;
5052;SDS011;2545;50.892;5.740;2024-01-07T07:58:43;30.27;;;15.80;;
5052;SDS011;2545;50.892;5.740;2024-01-07T08:01:09;31.63;;;16.80;;
5052;SDS011;2545;50.892;5.740;2024-01-07T08:03:34;25.73;;;15.20;;
5052;SDS011;2545;50.892;5.740;2024-01-07T08:05:59;26.33;;;14.17;;
5052;SDS011;2545;50.892;5.740;2024-01-07T08:08:25;25.33;;;13.67;;
5052;SDS011;2545;50.892;5.740;2024-01-07T08:10:50;22.00;;;13.07;;
5052;SDS011;2545;50.892;5.740;2024-01-07T08:13:15;28.17;;;15.90;;
5052;SDS011;2545;50.892;5.740;2024-01-07T08:15:41;26.17;;;14.20;;
5052;SDS011;2545;50.892;5.740;2024-01-07T08:18:06;24.70;;;14.27;;
5052;SDS011;2545;50.892;5.740;2024-01-07T08:20:31;25.07;;;14.37;;
5052;SDS011;2545;50.892;5.740;2024-01-07T08:22:58;26.27;;;14.67;;
5052;SDS011;2545;50.892;5.740;2024-01-07T08:25:25;23.00;;;13.77;;
5052;SDS011;2545;50.892;5.740;2024-01-07T08:27:50;23.33;;;13.80;;
5052;SDS011;2545;50.892;5.740;2024-01-07T08:30:15;25.53;;;14.20;;
5052;SDS011;2545;50.892;5.740;2024-01-07T08:32:41;22.57;;;13.53;;
5052;SDS011;2545;50.892;5.740;2024-01-07T08:35:06;33.53;;;15.80;;
5052;SDS011;2545;50.892;5.740;2024-01-07T08:37:32;28.40;;;15.80;;
5052;SDS011;2545;50.892;5.740;2024-01-07T08:39:58;24.30;;;14.50;;
5052;SDS011;2545;50.892;5.740;2024-01-07T08:42:24;27.50;;;14.73;;
5052;SDS011;2545;50.892;5.740;2024-01-07T08:44:49;27.50;;;14.53;;
5052;SDS011;2545;50.892;5.740;2024-01-07T08:47:15;28.30;;;14.17;;
5052;SDS011;2545;50.892;5.740;2024-01-07T08:49:40;24.40;;;14.47;;
5052;SDS011;2545;50.892;5.740;2024-01-07T08:52:05;26.13;;;13.50;;
5052;SDS011;2545;50.892;5.740;2024-01-07T08:54:31;32.53;;;13.80;;
5052;SDS011;2545;50.892;5.740;2024-01-07T08:56:56;23.40;;;13.80;;
5052;SDS011;2545;50.892;5.740;2024-01-07T08:59:21;31.50;;;16.23;;
5052;SDS011;2545;50.892;5.740;2024-01-07T09:01:47;22.10;;;13.47;;
5052;SDS011;2545;50.892;5.740;2024-01-07T09:04:12;26.20;;;15.07;;
5052;SDS011;2545;50.892;5.740;2024-01-07T09:06:37;32.50;;;17.70;;
5052;SDS011;2545;50.892;5.740;2024-01-07T09:09:03;30.10;;;16.20;;
5052;SDS011;2545;50.892;5.740;2024-01-07T09:11:31;37.40;;;19.07;;
5052;SDS011;2545;50.892;5.740;2024-01-07T09:13:57;33.97;;;18.70;;
5052;SDS011;2545;50.892;5.740;2024-01-07T09:16:22;31.03;;;17.70;;
5052;SDS011;2545;50.892;5.740;2024-01-07T09:18:47;34.47;;;17.90;;
5052;SDS011;2545;50.892;5.740;2024-01-07T09:21:13;30.70;;;18.33;;
5052;SDS011;2545;50.892;5.740;2024-01-07T09:23:39;31.67;;;17.03;;
5052;SDS011;2545;50.892;5.740;2024-01-07T09:26:04;42.40;;;20.63;;
5052;SDS011;2545;50.892;5.740;2024-01-07T09:28:29;35.77;;;18.50;;
5052;SDS011;2545;50.892;5.740;2024-01-07T09:30:55;34.07;;;18.77;;
5052;SDS011;2545;50.892;5.740;2024-01-07T09:33:20;31.57;;;17.90;;
5052;SDS011;2545;50.892;5.740;2024-01-07T09:35:48;29.40;;;16.60;;
5052;SDS011;2545;50.892;5.740;2024-01-07T09:38:14;31.33;;;16.53;;
5052;SDS011;2545;50.892;5.740;2024-01-07T09:40:39;31.93;;;17.47;;
5052;SDS011;2545;50.892;5.740;2024-01-07T09:43:04;31.37;;;16.60;;
5052;SDS011;2545;50.892;5.740;2024-01-07T09:45:31;28.67;;;15.97;;
5052;SDS011;2545;50.892;5.740;2024-01-07T09:47:56;27.80;;;16.40;;
5052;SDS011;2545;50.892;5.740;2024-01-07T09:50:22;32.97;;;18.33;;
5052;SDS011;2545;50.892;5.740;2024-01-07T09:52:47;25.43;;;14.70;;
5052;SDS011;2545;50.892;5.740;2024-01-07T09:55:22;30.10;;;16.40;;
5052;SDS011;2545;50.892;5.740;2024-01-07T09:57:56;27.90;;;15.90;;
5052;SDS011;2545;50.892;5.740;2024-01-07T10:00:22;27.80;;;16.10;;
5052;SDS011;2545;50.892;5.740;2024-01-07T10:02:47;28.37;;;15.60;;
5052;SDS011;2545;50.892;5.740;2024-01-07T10:05:12;28.37;;;15.30;;
5052;SDS011;2545;50.892;5.740;2024-01-07T10:07:38;24.70;;;13.70;;
5052;SDS011;2545;50.892;5.740;2024-01-07T10:10:17;26.70;;;15.37;;
5052;SDS011;2545;50.892;5.740;2024-01-07T10:12:46;31.10;;;14.80;;
5052;SDS011;2545;50.892;5.740;2024-01-07T10:15:12;24.77;;;14.73;;
5052;SDS011;2545;50.892;5.740;2024-01-07T10:17:39;27.77;;;17.20;;
5052;SDS011;2545;50.892;5.740;2024-01-07T10:20:07;27.97;;;15.30;;
5052;SDS011;2545;50.892;5.740;2024-01-07T10:22:36;29.27;;;16.27;;
5052;SDS011;2545;50.892;5.740;2024-01-07T10:25:03;29.60;;;15.60;;
5052;SDS011;2545;50.892;5.740;2024-01-07T10:27:28;29.10;;;17.07;;
5052;SDS011;2545;50.892;5.740;2024-01-07T10:29:54;30.80;;;16.70;;
5052;SDS011;2545;50.892;5.740;2024-01-07T10:32:23;23.77;;;15.57;;
5052;SDS011;2545;50.892;5.740;2024-01-07T10:34:48;29.73;;;17.40;;
5052;SDS011;2545;50.892;5.740;2024-01-07T10:37:13;33.57;;;19.30;;
5052;SDS011;2545;50.892;5.740;2024-01-07T10:39:39;59.27;;;26.10;;
5052;SDS011;2545;50.892;5.740;2024-01-07T10:42:05;45.60;;;23.33;;
5052;SDS011;2545;50.892;5.740;2024-01-07T10:44:31;40.13;;;21.30;;
5052;SDS011;2545;50.892;5.740;2024-01-07T10:46:58;36.13;;;19.70;;
5052;SDS011;2545;50.892;5.740;2024-01-07T10:49:25;33.03;;;17.30;;
5052;SDS011;2545;50.892;5.740;2024-01-07T10:52:05;35.53;;;19.77;;
5052;SDS011;2545;50.892;5.740;2024-01-07T10:54:32;33.40;;;20.00;;
5052;SDS011;2545;50.892;5.740;2024-01-07T10:56:59;30.33;;;17.37;;
5052;SDS011;2545;50.892;5.740;2024-01-07T10:59:32;34.20;;;19.23;;
5052;SDS011;2545;50.892;5.740;2024-01-07T11:01:58;30.43;;;17.63;;
5052;SDS011;2545;50.892;5.740;2024-01-07T11:04:30;26.17;;;16.50;;
5052;SDS011;2545;50.892;5.740;2024-01-07T11:07:18;29.77;;;16.80;;
5052;SDS011;2545;50.892;5.740;2024-01-07T11:10:02;29.13;;;17.07;;
5052;SDS011;2545;50.892;5.740;2024-01-07T11:12:30;28.47;;;16.90;;
5052;SDS011;2545;50.892;5.740;2024-01-07T11:14:56;27.20;;;16.23;;
5052;SDS011;2545;50.892;5.740;2024-01-07T11:20:07;35.57;;;16.83;;
5052;SDS011;2545;50.892;5.740;2024-01-07T11:22:39;33.43;;;20.20;;
5052;SDS011;2545;50.892;5.740;2024-01-07T11:25:20;26.73;;;16.90;;
5052;SDS011;2545;50.892;5.740;2024-01-07T11:27:53;28.17;;;17.27;;
5052;SDS011;2545;50.892;5.740;2024-01-07T11:30:18;30.00;;;16.80;;
5052;SDS011;2545;50.892;5.740;2024-01-07T11:32:44;28.67;;;17.07;;
5052;SDS011;2545;50.892;5.740;2024-01-07T11:35:13;24.97;;;15.63;;
5052;SDS011;2545;50.892;5.740;2024-01-07T11:37:38;28.37;;;16.20;;
5052;SDS011;2545;50.892;5.740;2024-01-07T11:40:04;27.53;;;16.27;;
5052;SDS011;2545;50.892;5.740;2024-01-07T11:42:31;30.23;;;17.70;;
5052;SDS011;2545;50.892;5.740;2024-01-07T11:44:57;35.33;;;19.40;;
5052;SDS011;2545;50.892;5.740;2024-01-07T11:47:23;27.93;;;17.00;;
5052;SDS011;2545;50.892;5.740;2024-01-07T11:49:50;33.27;;;19.10;;
5052;SDS011;2545;50.892;5.740;2024-01-07T11:52:16;33.40;;;18.33;;
5052;SDS011;2545;50.892;5.740;2024-01-07T11:54:42;31.30;;;17.50;;
5052;SDS011;2545;50.892;5.740;2024-01-07T11:57:07;32.73;;;19.50;;
5052;SDS011;2545;50.892;5.740;2024-01-07T11:59:34;34.10;;;18.90;;
5052;SDS011;2545;50.892;5.740;2024-01-07T12:02:00;33.70;;;18.43;;
5052;SDS011;2545;50.892;5.740;2024-01-07T12:04:26;30.93;;;18.00;;
5052;SDS011;2545;50.892;5.740;2024-01-07T12:06:51;27.63;;;17.93;;
5052;SDS011;2545;50.892;5.740;2024-01-07T12:09:17;32.47;;;17.03;;
5052;SDS011;2545;50.892;5.740;2024-01-07T12:11:42;39.60;;;20.10;;
5052;SDS011;2545;50.892;5.740;2024-01-07T12:14:09;38.80;;;21.33;;
5052;SDS011;2545;50.892;5.740;2024-01-07T12:16:36;34.90;;;20.03;;
5052;SDS011;2545;50.892;5.740;2024-01-07T12:19:02;44.27;;;20.77;;
5052;SDS011;2545;50.892;5.740;2024-01-07T12:21:27;33.00;;;19.90;;
5052;SDS011;2545;50.892;5.740;2024-01-07T12:23:54;36.60;;;20.23;;
5052;SDS011;2545;50.892;5.740;2024-01-07T12:26:21;28.63;;;16.67;;
5052;SDS011;2545;50.892;5.740;2024-01-07T12:28:58;30.83;;;16.70;;
5052;SDS011;2545;50.892;5.740;2024-01-07T12:31:28;30.53;;;18.27;;
5052;SDS011;2545;50.892;5.740;2024-01-07T12:33:57;29.13;;;17.60;;
5052;SDS011;2545;50.892;5.740;2024-01-07T12:36:24;25.50;;;15.00;;
5052;SDS011;2545;50.892;5.740;2024-01-07T12:38:49;25.53;;;16.30;;
5052;SDS011;2545;50.892;5.740;2024-01-07T12:41:19;25.57;;;15.97;;
5052;SDS011;2545;50.892;5.740;2024-01-07T12:43:44;26.10;;;15.00;;
5052;SDS011;2545;50.892;5.740;2024-01-07T12:46:10;21.90;;;14.10;;
5052;SDS011;2545;50.892;5.740;2024-01-07T12:48:35;20.87;;;13.47;;
5052;SDS011;2545;50.892;5.740;2024-01-07T12:51:01;19.57;;;12.57;;
5052;SDS011;2545;50.892;5.740;2024-01-07T12:53:27;20.43;;;13.27;;
5052;SDS011;2545;50.892;5.740;2024-01-07T12:55:52;26.67;;;14.53;;
5052;SDS011;2545;50.892;5.740;2024-01-07T12:58:18;22.97;;;15.23;;
5052;SDS011;2545;50.892;5.740;2024-01-07T13:00:43;21.80;;;14.13;;
5052;SDS011;2545;50.892;5.740;2024-01-07T13:03:09;21.83;;;13.97;;
5052;SDS011;2545;50.892;5.740;2024-01-07T13:05:42;21.30;;;13.50;;
5052;SDS011;2545;50.892;5.740;2024-01-07T13:08:09;26.23;;;16.00;;
5052;SDS011;2545;50.892;5.740;2024-01-07T13:10:34;23.43;;;14.70;;
5052;SDS011;2545;50.892;5.740;2024-01-07T13:13:00;20.83;;;12.97;;
5052;SDS011;2545;50.892;5.740;2024-01-07T13:15:25;20.20;;;13.40;;
5052;SDS011;2545;50.892;5.740;2024-01-07T13:17:52;23.27;;;15.30;;
5052;SDS011;2545;50.892;5.740;2024-01-07T13:20:17;27.87;;;14.83;;
5052;SDS011;2545;50.892;5.740;2024-01-07T13:22:44;22.77;;;14.80;;
5052;SDS011;2545;50.892;5.740;2024-01-07T13:25:11;24.83;;;14.17;;
5052;SDS011;2545;50.892;5.740;2024-01-07T13:27:36;22.60;;;13.30;;
5052;SDS011;2545;50.892;5.740;2024-01-07T13:30:02;24.83;;;13.90;;
5052;SDS011;2545;50.892;5.740;2024-01-07T13:32:27;18.10;;;11.90;;
5052;SDS011;2545;50.892;5.740;2024-01-07T13:34:52;17.80;;;11.57;;
5052;SDS011;2545;50.892;5.740;2024-01-07T13:37:18;20.20;;;12.50;;
5052;SDS011;2545;50.892;5.740;2024-01-07T13:39:43;22.97;;;13.90;;
5052;SDS011;2545;50.892;5.740;2024-01-07T13:42:09;25.60;;;12.47;;
5052;SDS011;2545;50.892;5.740;2024-01-07T13:44:34;19.60;;;10.97;;
5052;SDS011;2545;50.892;5.740;2024-01-07T13:46:59;17.37;;;11.40;;
5052;SDS011;2545;50.892;5.740;2024-01-07T13:49:26;18.27;;;11.00;;
5052;SDS011;2545;50.892;5.740;2024-01-07T13:51:52;18.13;;;11.40;;
5052;SDS011;2545;50.892;5.740;2024-01-07T13:54:18;22.80;;;11.97;;
5052;SDS011;2545;50.892;5.740;2024-01-07T13:56:43;18.70;;;11.37;;
5052;SDS011;2545;50.892;5.740;2024-01-07T13:59:09;17.23;;;11.07;;
5052;SDS011;2545;50.892;5.740;2024-01-07T14:01:35;16.63;;;9.80;;
5052;SDS011;2545;50.892;5.740;2024-01-07T14:04:00;16.57;;;9.40;;
5052;SDS011;2545;50.892;5.740;2024-01-07T14:06:26;14.53;;;9.60;;
5052;SDS011;2545;50.892;5.740;2024-01-07T14:08:51;19.47;;;9.50;;
5052;SDS011;2545;50.892;5.740;2024-01-07T14:11:17;13.97;;;8.43;;
5052;SDS011;2545;50.892;5.740;2024-01-07T14:13:43;13.33;;;9.20;;
5052;SDS011;2545;50.892;5.740;2024-01-07T14:16:10;14.17;;;8.30;;
5052;SDS011;2545;50.892;5.740;2024-01-07T14:18:36;18.13;;;9.10;;
5052;SDS011;2545;50.892;5.740;2024-01-07T14:21:01;14.97;;;9.33;;
5052;SDS011;2545;50.892;5.740;2024-01-07T14:23:26;13.73;;;9.37;;
5052;SDS011;2545;50.892;5.740;2024-01-07T14:25:52;13.37;;;10.17;;
5052;SDS011;2545;50.892;5.740;2024-01-07T14:28:18;13.70;;;9.10;;
5052;SDS011;2545;50.892;5.740;2024-01-07T14:30:44;12.87;;;8.90;;
5052;SDS011;2545;50.892;5.740;2024-01-07T14:33:10;12.87;;;9.23;;
5052;SDS011;2545;50.892;5.740;2024-01-07T14:35:36;14.13;;;9.30;;
5052;SDS011;2545;50.892;5.740;2024-01-07T14:38:01;12.77;;;8.70;;
5052;SDS011;2545;50.892;5.740;2024-01-07T14:40:29;11.40;;;8.70;;
5052;SDS011;2545;50.892;5.740;2024-01-07T14:42:54;11.83;;;7.73;;